Time;durP1;ratioP1;P1;durP2;ratioP2;P2;SDS_P1;SDS_P2;PMS_P1;PMS_P2;Temp;Humidity;BMP_temperature;BMP_pressure;BME280_temperature;BME280_humidity;BME280_pressure;Samples;Min_cycle;Max_cycle;Signal;HPM_P1;HPM_P2
2022/04/18 00:02:11;;;;;;;2.57;2.20;;;;;;;6.70;78.21;100636.72;5049593;28;20175;-53
2022/04/18 00:04:37;;;;;;;3.07;2.50;;;;;;;6.69;78.76;100637.56;5040037;28;20252;-57
2022/04/18 00:07:03;;;;;;;2.60;2.40;;;;;;;6.67;79.19;100636.69;5027007;28;20230;-53
2022/04/18 00:09:30;;;;;;;2.80;2.57;;;;;;;6.66;79.33;100634.06;5047127;28;20219;-55
2022/04/18 00:11:57;;;;;;;2.73;2.53;;;;;;;6.62;79.18;100640.06;5049987;28;20246;-56
2022/04/18 00:14:23;;;;;;;3.10;2.20;;;;;;;6.61;78.59;100635.75;5053390;28;20200;-57
2022/04/18 00:16:49;;;;;;;2.23;2.03;;;;;;;6.53;79.27;100633.91;5029988;28;20177;-55
2022/04/18 00:19:14;;;;;;;4.60;2.63;;;;;;;6.54;78.44;100635.66;5032231;28;20194;-55
2022/04/18 00:21:40;;;;;;;2.60;2.40;;;;;;;6.50;78.50;100633.91;5051760;28;20232;-57
2022/04/18 00:24:05;;;;;;;3.47;2.50;;;;;;;6.44;79.42;100630.38;5044617;28;20277;-55
2022/04/18 00:26:31;;;;;;;2.30;2.17;;;;;;;6.39;79.66;100623.47;5052367;28;20185;-55
2022/04/18 00:28:56;;;;;;;2.70;2.43;;;;;;;6.36;79.22;100618.28;5044745;28;20247;-54
2022/04/18 00:31:22;;;;;;;3.60;3.10;;;;;;;6.34;79.52;100613.97;5038709;28;20238;-56
2022/04/18 00:33:47;;;;;;;2.80;2.47;;;;;;;6.32;79.45;100613.09;5032467;28;20199;-59
2022/04/18 00:36:12;;;;;;;3.37;2.73;;;;;;;6.25;79.78;100619.84;5032634;28;20205;-54
2022/04/18 00:38:38;;;;;;;3.50;2.53;;;;;;;6.20;80.53;100619.75;5038208;28;20183;-56
2022/04/18 00:41:05;;;;;;;2.73;2.40;;;;;;;6.13;80.87;100610.25;5052439;28;20187;-55
2022/04/18 00:43:43;;;;;;;3.57;2.80;;;;;;;6.12;80.45;100612.81;5040327;28;20202;-56
2022/04/18 00:46:09;;;;;;;7.73;2.93;;;;;;;6.09;79.95;100603.31;5041505;28;20187;-54
2022/04/18 00:48:35;;;;;;;2.43;2.23;;;;;;;6.07;79.81;100599.88;5032504;28;20679;-57
2022/04/18 00:51:01;;;;;;;3.30;2.73;;;;;;;6.05;80.11;100597.28;5032928;28;20210;-54
2022/04/18 00:53:27;;;;;;;3.07;2.70;;;;;;;6.01;80.56;100594.66;5026014;28;20812;-56
2022/04/18 00:55:53;;;;;;;3.20;2.90;;;;;;;5.94;81.56;100591.09;5051363;28;20179;-54
2022/04/18 00:58:19;;;;;;;3.20;2.30;;;;;;;5.90;81.93;100589.31;5040845;28;20258;-55
2022/04/18 01:00:44;;;;;;;3.00;2.50;;;;;;;5.88;82.47;100586.75;5042440;28;20191;-52
2022/04/18 01:03:09;;;;;;;3.17;2.70;;;;;;;5.82;82.40;100584.06;5037403;28;20238;-55
2022/04/18 01:05:35;;;;;;;4.07;3.37;;;;;;;5.85;82.23;100581.56;5052217;28;20219;-55
2022/04/18 01:08:00;;;;;;;3.47;2.97;;;;;;;5.84;82.46;100592.66;5042605;28;20252;-55
2022/04/18 01:10:26;;;;;;;3.47;2.63;;;;;;;5.79;83.49;100581.44;5053191;28;20185;-56
2022/04/18 01:12:51;;;;;;;3.80;2.60;;;;;;;5.73;84.78;100586.50;5044542;28;20261;-54
2022/04/18 01:15:17;;;;;;;2.73;2.53;;;;;;;5.69;85.03;100579.59;5059915;28;20187;-55
2022/04/18 01:17:42;;;;;;;4.67;2.73;;;;;;;5.67;85.04;100584.72;5043577;28;20193;-56
2022/04/18 01:20:08;;;;;;;4.77;3.30;;;;;;;5.67;84.21;100574.44;5046840;28;20187;-55
2022/04/18 01:22:35;;;;;;;3.40;2.80;;;;;;;5.64;83.20;100570.09;5045481;28;20266;-55
2022/04/18 01:30:29;;;;;;;3.30;3.00;;;;;;;5.62;81.71;100563.22;5032470;28;20271;-54
2022/04/18 01:32:55;;;;;;;4.57;3.30;;;;;;;5.65;81.38;100560.72;5039869;28;20210;-54
2022/04/18 01:35:20;;;;;;;3.37;2.90;;;;;;;5.60;81.43;100559.75;5040244;28;20266;-55
2022/04/18 01:37:46;;;;;;;3.40;2.80;;;;;;;5.60;81.17;100554.63;5041100;28;20188;-53
2022/04/18 01:40:12;;;;;;;3.13;2.83;;;;;;;5.58;81.03;100557.19;5032412;28;20184;-56
2022/04/18 01:42:37;;;;;;;3.00;2.53;;;;;;;5.55;80.83;100557.13;5051321;28;20186;-54
2022/04/18 01:45:03;;;;;;;3.43;2.70;;;;;;;5.57;80.70;100557.13;5035255;28;20277;-56
2022/04/18 01:47:29;;;;;;;3.30;2.87;;;;;;;5.60;81.33;100557.19;5033320;28;20219;-55
2022/04/18 01:49:54;;;;;;;3.47;3.10;;;;;;;5.63;81.67;100552.97;5031296;28;20184;-56
2022/04/18 01:52:20;;;;;;;2.73;2.53;;;;;;;5.65;80.84;100546.16;5034003;28;20188;-57
2022/04/18 01:54:45;;;;;;;4.10;2.90;;;;;;;5.61;81.09;100552.06;5039247;28;20214;-56
2022/04/18 01:57:11;;;;;;;2.90;2.67;;;;;;;5.64;80.55;100541.84;5050906;28;20190;-56
2022/04/18 01:59:36;;;;;;;3.23;2.53;;;;;;;5.65;80.92;100545.31;5034056;28;20195;-55
2022/04/18 02:02:02;;;;;;;2.70;2.50;;;;;;;5.63;80.20;100544.41;5032416;28;20187;-55
2022/04/18 02:04:27;;;;;;;2.77;2.57;;;;;;;5.60;79.27;100542.63;5051136;28;20222;-55
2022/04/18 02:06:52;;;;;;;2.97;2.53;;;;;;;5.56;79.66;100551.16;5041154;28;20201;-56
2022/04/18 02:09:18;;;;;;;3.10;2.80;;;;;;;5.52;79.61;100546.81;5039454;28;20319;-54
2022/04/18 02:11:43;;;;;;;3.13;2.70;;;;;;;5.52;79.65;100543.38;5047997;28;20565;-55
2022/04/18 02:14:08;;;;;;;3.03;2.73;;;;;;;5.48;80.02;100548.47;5039073;28;20207;-56
2022/04/18 02:16:34;;;;;;;3.20;2.83;;;;;;;5.52;80.64;100540.81;5034680;28;20188;-56
2022/04/18 02:18:59;;;;;;;3.23;2.73;;;;;;;5.49;81.28;100551.88;5030828;28;20176;-56
2022/04/18 02:21:24;;;;;;;2.87;2.67;;;;;;;5.48;81.42;100540.75;5045610;28;20588;-55
2022/04/18 02:23:50;;;;;;;4.57;2.67;;;;;;;5.47;81.08;100549.31;5044565;28;20622;-57
2022/04/18 02:26:15;;;;;;;3.30;3.00;;;;;;;5.44;80.80;100549.25;5052208;28;20194;-54
2022/04/18 02:28:41;;;;;;;3.93;3.17;;;;;;;5.34;80.88;100543.09;5045720;28;20194;-55
2022/04/18 02:31:07;;;;;;;3.97;2.93;;;;;;;5.28;80.78;100537.00;5050382;28;20175;-55
2022/04/18 02:33:33;;;;;;;2.50;2.30;;;;;;;5.24;80.95;100543.78;5050423;28;20566;-56
2022/04/18 02:36:01;;;;;;;3.40;2.77;;;;;;;5.18;80.96;100541.97;5048342;28;20262;-56
2022/04/18 02:38:26;;;;;;;3.27;2.70;;;;;;;5.12;81.36;100547.00;5029502;28;20229;-57
2022/04/18 02:40:52;;;;;;;3.20;2.90;;;;;;;5.05;81.71;100534.91;5030331;28;20198;-56
2022/04/18 02:43:17;;;;;;;3.17;2.97;;;;;;;5.01;81.63;100539.09;5051172;28;20215;-57
2022/04/18 02:45:42;;;;;;;3.00;2.70;;;;;;;4.96;81.69;100533.03;5049693;28;20195;-57
2022/04/18 02:48:07;;;;;;;3.23;2.80;;;;;;;4.96;81.62;100542.44;5047925;28;20266;-57
2022/04/18 02:50:33;;;;;;;2.80;2.57;;;;;;;4.93;81.78;100534.66;5030703;28;20240;-56
2022/04/18 02:52:58;;;;;;;3.13;2.73;;;;;;;4.91;81.86;100544.91;5046266;28;20213;-54
2022/04/18 02:55:25;;;;;;;3.17;2.87;;;;;;;4.88;82.03;100534.59;5043383;28;20235;-55
2022/04/18 02:57:51;;;;;;;3.07;2.70;;;;;;;4.83;82.37;100539.63;5028535;28;20191;-55
2022/04/18 03:00:16;;;;;;;3.50;2.87;;;;;;;4.79;82.40;100542.13;5030848;28;20250;-56
2022/04/18 03:02:42;;;;;;;3.50;2.93;;;;;;;4.72;82.57;100536.03;5035948;28;20202;-54
2022/04/18 03:05:08;;;;;;;2.70;2.50;;;;;;;4.68;82.77;100529.97;5042986;28;20266;-55
2022/04/18 03:07:34;;;;;;;2.60;2.40;;;;;;;4.65;82.95;100521.34;5043092;28;20263;-57
2022/04/18 03:10:00;;;;;;;2.80;2.53;;;;;;;4.58;83.25;100521.25;5045181;28;20186;-57
2022/04/18 03:12:25;;;;;;;2.70;2.50;;;;;;;4.60;83.33;100526.38;5060637;28;20556;-55
2022/04/18 03:14:51;;;;;;;4.10;3.03;;;;;;;4.61;83.34;100517.88;5034393;28;20226;-56
2022/04/18 03:17:17;;;;;;;2.80;2.50;;;;;;;4.65;82.72;100523.91;5041405;28;20282;-57
2022/04/18 03:19:43;;;;;;;2.97;2.70;;;;;;;4.67;82.68;100519.66;5048632;28;20194;-57
2022/04/18 03:22:08;;;;;;;3.57;2.77;;;;;;;4.64;82.82;100517.03;5031320;28;20191;-57
2022/04/18 03:24:34;;;;;;;3.13;2.70;;;;;;;4.67;82.51;100507.75;5035609;28;20257;-55
2022/04/18 03:27:01;;;;;;;3.63;2.83;;;;;;;4.61;82.98;100506.75;5056436;28;20210;-56
2022/04/18 03:29:26;;;;;;;4.00;3.03;;;;;;;4.63;83.88;100507.63;5038256;28;20202;-55
2022/04/18 03:31:52;;;;;;;3.87;2.97;;;;;;;4.65;84.98;100506.84;5045306;28;20187;-56
2022/04/18 03:34:18;;;;;;;3.77;3.20;;;;;;;4.63;86.19;100508.50;5035384;28;20756;-57
2022/04/18 03:42:11;;;;;;;3.47;3.13;;;;;;;4.68;86.26;100508.59;5049880;28;20305;-56
2022/04/18 03:44:44;;;;;;;4.43;3.13;;;;;;;4.64;86.22;100497.41;5038246;28;20330;-55
2022/04/18 03:47:11;;;;;;;4.27;3.10;;;;;;;4.64;85.73;100501.66;5044314;28;20206;-56
2022/04/18 03:49:37;;;;;;;3.60;3.30;;;;;;;4.59;84.91;100499.03;5054308;28;20398;-56
2022/04/18 03:52:03;;;;;;;3.00;2.80;;;;;;;4.52;85.34;100497.19;5045003;28;20730;-55
2022/04/18 03:54:28;;;;;;;3.70;3.40;;;;;;;4.48;86.91;100485.16;5052740;28;20207;-54
2022/04/18 03:56:54;;;;;;;3.33;3.03;;;;;;;4.48;87.06;100492.84;5046394;28;20610;-56
2022/04/18 03:59:19;;;;;;;3.60;3.30;;;;;;;4.42;87.32;100488.47;5052021;28;20189;-55
2022/04/18 04:01:44;;;;;;;4.27;3.13;;;;;;;4.41;87.83;100491.84;5049498;28;20200;-56
2022/04/18 04:04:10;;;;;;;4.53;3.40;;;;;;;4.37;88.72;100490.94;5047802;28;20216;-55
2022/04/18 04:06:35;;;;;;;4.13;3.50;;;;;;;4.34;89.55;100495.13;5037527;28;20223;-56
2022/04/18 04:09:00;;;;;;;3.70;3.40;;;;;;;4.23;89.77;100489.81;5040100;28;20542;-57
2022/04/18 04:11:26;;;;;;;3.80;2.90;;;;;;;4.15;89.99;100491.31;5056488;28;20195;-54
2022/04/18 04:13:51;;;;;;;3.23;2.90;;;;;;;4.08;90.19;100492.88;5052160;28;20692;-55
2022/04/18 04:16:18;;;;;;;4.13;3.30;;;;;;;4.03;90.01;100492.81;5046114;28;20266;-56
2022/04/18 04:18:43;;;;;;;3.53;3.00;;;;;;;3.98;89.40;100494.38;5032981;28;20187;-57
2022/04/18 04:21:09;;;;;;;3.20;2.90;;;;;;;3.94;89.04;100492.59;5038930;28;20188;-54
2022/04/18 04:23:34;;;;;;;3.40;3.10;;;;;;;3.92;88.43;100494.28;5049125;28;20223;-55
2022/04/18 04:25:59;;;;;;;3.30;3.00;;;;;;;3.89;88.58;100492.50;5056175;28;20190;-55
2022/04/18 04:28:25;;;;;;;3.20;2.90;;;;;;;3.87;89.09;100485.63;5066946;28;20193;-55
2022/04/18 04:30:50;;;;;;;3.40;3.10;;;;;;;3.87;89.69;100489.03;5063538;28;20274;-55
2022/04/18 04:33:15;;;;;;;4.40;3.60;;;;;;;3.89;90.04;100483.97;5043790;28;20348;-55
2022/04/18 04:35:41;;;;;;;3.90;3.40;;;;;;;3.87;90.69;100486.47;5046575;28;20240;-56
2022/04/18 04:38:06;;;;;;;3.63;3.33;;;;;;;3.81;90.83;100479.53;5051797;28;20197;-55
2022/04/18 04:40:32;;;;;;;3.37;3.03;;;;;;;3.78;90.88;100476.03;5040487;28;20624;-54
2022/04/18 04:42:57;;;;;;;3.93;3.30;;;;;;;3.76;90.93;100478.59;5037424;28;20219;-54
2022/04/18 04:45:22;;;;;;;4.30;2.90;;;;;;;3.76;91.03;100483.69;5049409;28;20210;-54
2022/04/18 04:47:48;;;;;;;3.87;3.43;;;;;;;3.75;91.30;100476.84;5041657;28;20240;-56
2022/04/18 04:50:13;;;;;;;3.77;3.30;;;;;;;3.75;91.39;100481.97;5040312;28;20241;-56
2022/04/18 04:52:38;;;;;;;3.80;2.87;;;;;;;3.74;91.47;100480.25;5047078;28;20201;-55
2022/04/18 04:55:06;;;;;;;3.00;2.70;;;;;;;3.78;91.47;100481.16;5047908;28;20236;-56
2022/04/18 04:57:32;;;;;;;4.10;3.70;;;;;;;3.89;89.85;100474.56;5060429;28;20273;-55
2022/04/18 05:00:05;;;;;;;3.23;2.90;;;;;;;4.00;89.28;100471.41;5036660;28;20277;-57
2022/04/18 05:02:40;;;;;;;3.30;3.00;;;;;;;4.10;88.63;100468.19;5032393;28;20233;-53
2022/04/18 05:05:06;;;;;;;3.90;2.90;;;;;;;4.20;88.23;100469.22;5030896;28;20206;-56
2022/04/18 05:07:31;;;;;;;3.50;3.20;;;;;;;4.25;87.43;100465.03;5047171;28;20622;-54
2022/04/18 05:09:57;;;;;;;3.60;3.23;;;;;;;4.27;87.20;100471.06;5044842;28;20187;-56
2022/04/18 05:12:22;;;;;;;3.27;2.97;;;;;;;4.47;87.40;100465.47;5052764;28;20683;-54
2022/04/18 05:14:47;;;;;;;4.07;3.67;;;;;;;4.77;87.90;100467.72;5034163;28;20605;-55
2022/04/18 05:17:13;;;;;;;3.47;3.17;;;;;;;5.18;87.05;100461.56;5045348;28;20542;-57
2022/04/18 05:19:38;;;;;;;4.13;3.30;;;;;;;5.39;86.05;100458.47;5059736;28;20503;-54
2022/04/18 05:22:04;;;;;;;3.37;3.07;;;;;;;5.62;85.01;100461.38;5041338;28;20206;-56
2022/04/18 05:24:29;;;;;;;3.13;2.73;;;;;;;5.85;84.14;100465.97;5049838;28;20679;-54
2022/04/18 05:26:55;;;;;;;3.53;3.03;;;;;;;6.34;82.53;100462.31;5059291;28;20496;-56
2022/04/18 05:29:20;;;;;;;3.30;3.00;;;;;;;6.67;80.61;100458.34;5031957;28;20190;-56
2022/04/18 05:31:45;;;;;;;3.63;2.70;;;;;;;6.84;79.45;100461.09;5046072;28;20183;-57
2022/04/18 05:34:11;;;;;;;3.77;3.20;;;;;;;6.86;79.40;100462.81;5031514;28;20673;-53
2022/04/18 05:36:36;;;;;;;3.70;3.00;;;;;;;7.01;79.44;100459.53;5031800;28;21226;-57
2022/04/18 05:39:01;;;;;;;3.90;3.00;;;;;;;7.26;78.84;100466.59;5037361;28;20313;-55
2022/04/18 05:41:27;;;;;;;3.27;2.67;;;;;;;7.72;77.05;100472.03;5032961;28;20200;-57
2022/04/18 05:43:52;;;;;;;4.37;3.00;;;;;;;8.87;74.59;100466.41;5032145;28;20212;-56
2022/04/18 05:46:17;;;;;;;3.60;2.97;;;;;;;9.85;71.71;100469.78;5034044;28;20222;-57
2022/04/18 05:48:43;;;;;;;4.73;3.07;;;;;;;10.35;68.68;100471.31;5045060;28;20389;-56
2022/04/18 05:51:08;;;;;;;5.33;2.80;;;;;;;11.05;67.36;100473.44;5056075;28;20190;-57
2022/04/18 05:53:34;;;;;;;3.27;2.70;;;;;;;11.59;65.85;100472.13;5065976;28;20210;-57
2022/04/18 05:55:59;;;;;;;3.30;2.63;;;;;;;11.34;65.13;100479.28;5061048;28;20191;-55
2022/04/18 05:58:26;;;;;;;3.23;2.93;;;;;;;11.50;65.03;100470.47;5044125;28;20258;-56
2022/04/18 06:00:51;;;;;;;2.80;2.50;;;;;;;11.67;64.67;100478.06;5040040;28;20191;-55
2022/04/18 06:03:17;;;;;;;2.90;2.60;;;;;;;11.49;64.12;100473.09;5050172;28;20549;-57
2022/04/18 06:05:42;;;;;;;2.90;2.60;;;;;;;12.14;63.50;100478.47;5033200;28;20251;-55
2022/04/18 06:08:07;;;;;;;3.07;2.87;;;;;;;12.48;62.29;100477.16;5030264;28;20188;-55
2022/04/18 06:10:40;;;;;;;3.10;2.80;;;;;;;13.00;61.67;100465.13;5030751;28;20190;-56
2022/04/18 06:13:05;;;;;;;3.07;2.77;;;;;;;13.30;61.14;100467.25;5030755;28;20867;-55
2022/04/18 06:15:31;;;;;;;4.23;3.03;;;;;;;13.74;59.95;100468.22;5030843;28;20189;-57
2022/04/18 06:17:56;;;;;;;3.10;2.77;;;;;;;14.07;59.11;100467.56;5031466;28;20519;-55
2022/04/18 06:20:22;;;;;;;2.87;2.67;;;;;;;14.12;58.22;100476.13;5035476;28;20274;-55
2022/04/18 06:22:47;;;;;;;3.00;2.80;;;;;;;13.94;58.33;100467.81;5048367;28;20210;-53
2022/04/18 06:25:12;;;;;;;2.77;2.57;;;;;;;14.05;57.90;100469.31;5052269;28;20246;-56
2022/04/18 06:27:38;;;;;;;2.80;2.60;;;;;;;14.15;57.89;100465.63;5061623;28;20182;-54
2022/04/18 06:30:03;;;;;;;3.30;3.00;;;;;;;14.27;57.38;100468.00;5070311;28;20178;-56
2022/04/18 06:32:29;;;;;;;3.93;2.80;;;;;;;14.58;57.14;100464.72;5070222;28;20187;-55
2022/04/18 06:34:54;;;;;;;3.67;2.87;;;;;;;14.17;57.56;100466.47;5070573;28;20174;-56
2022/04/18 06:37:20;;;;;;;3.90;2.67;;;;;;;14.25;57.54;100467.19;5060858;28;20187;-56
2022/04/18 06:39:45;;;;;;;4.50;3.07;;;;;;;14.64;57.16;100466.31;5033637;28;20377;-55
2022/04/18 06:42:10;;;;;;;3.10;2.90;;;;;;;14.76;56.79;100460.84;5030598;28;20190;-56
2022/04/18 06:44:36;;;;;;;2.83;2.63;;;;;;;14.72;56.56;100466.19;5037492;28;20231;-56
2022/04/18 06:47:01;;;;;;;2.80;2.60;;;;;;;15.18;56.34;100464.19;5043201;28;20184;-55
2022/04/18 06:49:26;;;;;;;2.80;2.60;;;;;;;15.50;56.24;100460.75;5035988;28;20669;-54
2022/04/18 06:51:52;;;;;;;3.97;2.67;;;;;;;15.78;55.94;100461.75;5038538;28;20200;-56
2022/04/18 06:54:17;;;;;;;3.07;2.77;;;;;;;15.96;55.25;100463.00;5053852;28;20694;-55
2022/04/18 06:57:01;;;;;;;3.00;2.60;;;;;;;15.51;55.08;100462.44;5031249;28;20208;-56
2022/04/18 06:59:28;;;;;;;3.00;2.70;;;;;;;15.72;55.35;100451.50;5049093;28;20198;-55
2022/04/18 07:01:54;;;;;;;3.00;2.60;;;;;;;15.85;55.12;100463.34;5047512;28;20233;-55
2022/04/18 07:04:20;;;;;;;2.70;2.50;;;;;;;15.89;55.03;100461.50;5030725;28;20290;-55
2022/04/18 07:06:45;;;;;;;3.30;3.00;;;;;;;15.95;55.16;100459.56;5039925;28;20193;-56
2022/04/18 07:09:11;;;;;;;2.70;2.50;;;;;;;16.06;55.30;100463.59;5042889;28;20197;-54
2022/04/18 07:11:36;;;;;;;2.93;2.63;;;;;;;15.93;55.32;100452.69;5038150;28;20221;-56
2022/04/18 07:14:02;;;;;;;3.73;2.77;;;;;;;15.69;56.05;100452.41;5041624;28;20214;-56
2022/04/18 07:16:30;;;;;;;3.63;2.70;;;;;;;15.16;55.66;100450.34;5037432;28;20288;-55
2022/04/18 07:18:58;;;;;;;3.67;2.83;;;;;;;14.89;56.55;100451.00;5036933;28;20667;-56
2022/04/18 07:21:25;;;;;;;3.20;2.90;;;;;;;14.56;57.02;100447.41;5036487;28;20183;-54
2022/04/18 07:23:50;;;;;;;3.60;2.73;;;;;;;14.75;57.24;100453.94;5029757;28;20500;-55
2022/04/18 07:26:15;;;;;;;2.87;2.67;;;;;;;14.52;57.71;100449.22;5047800;28;20267;-55
2022/04/18 07:28:41;;;;;;;3.90;2.87;;;;;;;13.91;58.23;100448.81;5042390;28;20717;-56
2022/04/18 07:31:07;;;;;;;3.50;2.97;;;;;;;13.91;58.93;100451.41;5038150;28;20597;-54
2022/04/18 07:33:35;;;;;;;3.53;3.00;;;;;;;14.03;58.94;100444.19;5035832;28;20212;-55
2022/04/18 07:36:01;;;;;;;3.13;2.93;;;;;;;13.90;59.66;100445.34;5038863;28;20189;-55
2022/04/18 07:41:10;;;;;;;4.37;3.40;;;;;;;13.30;60.89;100436.06;5038263;28;20190;-54
2022/04/18 07:43:36;;;;;;;5.27;3.30;;;;;;;12.90;61.85;100429.78;5041808;28;20219;-55
2022/04/18 07:46:04;;;;;;;3.67;3.37;;;;;;;12.73;62.78;100446.50;5037181;28;20657;-56
2022/04/18 07:48:30;;;;;;;3.93;3.53;;;;;;;12.43;63.09;100452.97;5040209;28;20215;-57
2022/04/18 07:53:40;;;;;;;3.87;3.17;;;;;;;12.26;64.44;100442.84;5046201;28;20220;-56
2022/04/18 07:56:05;;;;;;;3.90;3.50;;;;;;;12.17;64.09;100449.00;5037905;28;20182;-55
2022/04/18 07:58:31;;;;;;;3.87;2.73;;;;;;;12.15;64.35;100450.75;5043725;28;20195;-56
2022/04/18 08:00:56;;;;;;;3.40;3.10;;;;;;;12.20;64.57;100442.03;5032684;28;20188;-56
2022/04/18 08:03:21;;;;;;;3.13;2.73;;;;;;;12.28;64.31;100446.28;5040496;28;20715;-56
2022/04/18 08:05:47;;;;;;;3.43;3.13;;;;;;;12.33;65.27;100445.34;5035626;28;20188;-57
2022/04/18 08:08:12;;;;;;;4.47;2.80;;;;;;;12.40;64.65;100442.66;5045629;28;20195;-56
2022/04/18 08:10:38;;;;;;;4.40;3.40;;;;;;;12.47;64.04;100450.34;5046340;28;20207;-55
2022/04/18 08:13:04;;;;;;;3.47;3.07;;;;;;;12.62;63.70;100441.47;5038651;28;20226;-55
2022/04/18 08:15:30;;;;;;;3.33;2.97;;;;;;;12.57;63.28;100442.41;5038437;28;20193;-56
2022/04/18 08:17:55;;;;;;;3.20;2.90;;;;;;;12.56;63.31;100435.50;5044254;28;20180;-55
2022/04/18 08:20:21;;;;;;;4.10;2.90;;;;;;;12.49;63.35;100437.34;5038429;28;20245;-56
2022/04/18 08:22:46;;;;;;;3.50;3.20;;;;;;;12.53;64.89;100432.94;5043770;28;20245;-54
2022/04/18 08:25:13;;;;;;;4.40;3.17;;;;;;;12.47;64.37;100436.50;5036403;28;20218;-58
2022/04/18 08:27:38;;;;;;;3.43;2.87;;;;;;;12.42;63.03;100439.16;5042116;28;20571;-55
2022/04/18 08:30:04;;;;;;;3.87;3.00;;;;;;;12.42;63.65;100433.97;5039368;28;20192;-57
2022/04/18 08:32:36;;;;;;;3.70;2.93;;;;;;;12.43;63.93;100433.09;5043157;28;20196;-56
2022/04/18 08:35:01;;;;;;;3.03;2.80;;;;;;;12.42;64.03;100436.56;5066564;28;20735;-58
2022/04/18 08:37:27;;;;;;;4.10;3.40;;;;;;;12.40;63.30;100440.91;5044004;28;20225;-56
2022/04/18 08:39:52;;;;;;;3.77;3.47;;;;;;;12.45;63.48;100440.84;5052441;28;20235;-55
2022/04/18 08:42:21;;;;;;;3.50;2.90;;;;;;;12.47;63.34;100436.50;5030985;28;20187;-57
2022/04/18 08:44:49;;;;;;;5.57;3.17;;;;;;;12.50;62.43;100433.88;5040948;28;20407;-57
2022/04/18 08:52:43;;;;;;;3.47;3.17;;;;;;;12.54;63.70;100447.66;5046133;28;20194;-56
2022/04/18 08:52:50;;;;;;;3.73;3.30;;;;;;;12.63;62.79;100444.91;5052974;28;20272;-56
2022/04/18 08:55:17;;;;;;;4.10;3.40;;;;;;;12.68;62.01;100442.25;5051896;28;20261;-57
2022/04/18 08:57:42;;;;;;;4.03;2.93;;;;;;;12.78;63.14;100439.47;5036561;28;20565;-56
2022/04/18 09:00:09;;;;;;;3.77;3.47;;;;;;;12.88;62.17;100435.00;5044821;28;20197;-55
2022/04/18 09:02:37;;;;;;;3.87;3.40;;;;;;;12.98;61.08;100437.47;5054627;28;20222;-55
2022/04/18 09:05:02;;;;;;;3.93;3.10;;;;;;;12.99;60.82;100431.38;5049637;28;20210;-56
2022/04/18 09:07:28;;;;;;;3.43;3.07;;;;;;;12.98;61.66;100430.50;5045870;28;20675;-54
2022/04/18 09:09:55;;;;;;;3.73;3.20;;;;;;;13.08;61.42;100432.06;5050497;28;20203;-56
2022/04/18 09:12:22;;;;;;;3.00;2.70;;;;;;;13.09;61.40;100428.59;5043558;28;20570;-54
2022/04/18 09:14:48;;;;;;;4.30;3.17;;;;;;;13.21;60.66;100426.69;5047005;28;20700;-56
2022/04/18 09:17:29;;;;;;;4.47;3.17;;;;;;;13.36;60.41;100416.00;5054367;28;20192;-54
2022/04/18 09:20:09;;;;;;;3.20;2.90;;;;;;;13.55;59.22;100413.06;5044436;28;20195;-57
2022/04/18 09:22:46;;;;;;;2.77;2.57;;;;;;;13.68;58.63;100417.16;5040303;28;20472;-55
2022/04/18 09:25:16;;;;;;;4.37;2.90;;;;;;;13.67;58.19;100420.66;5040307;28;20690;-55
2022/04/18 09:27:51;;;;;;;4.03;3.27;;;;;;;13.75;57.36;100409.22;5037134;28;20683;-55
2022/04/18 09:30:17;;;;;;;3.90;2.80;;;;;;;13.84;58.88;100420.31;5039849;28;20753;-55
2022/04/18 09:33:05;;;;;;;3.87;2.67;;;;;;;13.93;58.92;100418.38;5040282;28;20195;-54
2022/04/18 09:35:32;;;;;;;3.30;3.00;;;;;;;13.96;58.13;100433.94;5035405;28;20523;-55
2022/04/18 09:38:05;;;;;;;3.43;3.13;;;;;;;13.84;56.95;100415.09;5035251;28;20197;-55
2022/04/18 09:40:36;;;;;;;4.13;3.30;;;;;;;13.86;57.66;100425.47;5039662;28;20337;-55
2022/04/18 09:43:02;;;;;;;3.73;3.20;;;;;;;13.80;56.75;100410.84;5059007;28;20209;-56
2022/04/18 09:45:27;;;;;;;3.20;2.90;;;;;;;13.83;56.77;100405.59;5035732;28;20267;-53
2022/04/18 09:48:01;;;;;;;3.77;3.07;;;;;;;13.97;57.87;100427.84;5050806;28;20279;-53
2022/04/18 09:53:22;;;;;;;3.70;2.70;;;;;;;13.96;56.15;100401.00;5038507;28;20232;-55
2022/04/18 09:55:52;;;;;;;4.03;3.10;;;;;;;13.99;56.28;100405.25;5038830;28;20201;-54
2022/04/18 09:58:17;;;;;;;3.47;3.13;;;;;;;14.05;56.81;100401.66;5047096;28;20268;-54
2022/04/18 10:00:43;;;;;;;3.33;3.03;;;;;;;14.15;56.51;100393.63;5032285;28;20277;-54
2022/04/18 10:03:09;;;;;;;3.50;2.70;;;;;;;14.27;57.54;100391.63;5031495;28;20603;-55
2022/04/18 10:05:35;;;;;;;3.97;3.20;;;;;;;14.39;56.42;100398.31;5039646;28;20283;-54
2022/04/18 10:08:03;;;;;;;3.27;2.93;;;;;;;14.33;54.99;100394.97;5052967;28;20636;-55
2022/04/18 10:10:33;;;;;;;4.77;3.17;;;;;;;14.25;55.15;100407.31;5048380;28;20223;-54
2022/04/18 10:12:58;;;;;;;3.03;2.73;;;;;;;14.37;55.33;100389.69;5034736;28;20216;-55
2022/04/18 10:15:24;;;;;;;3.03;2.83;;;;;;;14.39;55.27;100390.50;5044209;28;20264;-55
2022/04/18 10:17:50;;;;;;;3.43;3.13;;;;;;;14.35;55.52;100400.16;5039689;28;20676;-53
2022/04/18 10:20:37;;;;;;;5.50;2.93;;;;;;;14.52;56.41;100394.53;5040061;28;20200;-54
2022/04/18 10:23:33;;;;;;;5.43;3.27;;;;;;;14.54;55.57;100408.38;5031848;28;20210;-54
2022/04/18 10:26:36;;;;;;;2.90;2.70;;;;;;;14.46;55.46;100389.47;5039529;28;20180;-53
2022/04/18 10:29:07;;;;;;;6.20;3.20;;;;;;;14.57;56.05;100395.28;5044476;28;20268;-55
2022/04/18 10:31:39;;;;;;;4.47;3.23;;;;;;;14.65;56.12;100384.69;5045213;28;20201;-55
2022/04/18 10:34:05;;;;;;;3.97;3.13;;;;;;;14.76;55.60;100374.88;5041642;28;20201;-54
2022/04/18 10:36:33;;;;;;;3.93;3.10;;;;;;;14.85;56.70;100368.59;5051959;28;20204;-53
2022/04/18 10:39:06;;;;;;;6.17;3.63;;;;;;;14.95;55.69;100371.81;5036868;28;20479;-54
2022/04/18 10:41:40;;;;;;;4.30;3.70;;;;;;;14.81;55.86;100363.50;5040249;28;20268;-55
2022/04/18 10:44:08;;;;;;;4.63;3.17;;;;;;;14.86;55.15;100364.22;5050145;28;20259;-53
2022/04/18 10:46:33;;;;;;;4.37;3.50;;;;;;;14.90;55.52;100366.69;5048335;28;20645;-55
2022/04/18 10:49:01;;;;;;;3.87;3.17;;;;;;;14.92;56.10;100361.47;5039125;28;20194;-54
2022/04/18 10:51:38;;;;;;;3.53;3.23;;;;;;;14.98;55.04;100369.13;5041672;28;20193;-54
2022/04/18 10:54:31;;;;;;;3.33;3.00;;;;;;;14.92;55.82;100369.28;5029990;28;20582;-53
2022/04/18 10:56:58;;;;;;;5.03;3.17;;;;;;;14.84;54.85;100360.78;5032253;28;20182;-55
2022/04/18 10:59:24;;;;;;;3.70;3.00;;;;;;;14.93;55.88;100352.75;5047604;28;20667;-55
2022/04/18 11:01:51;;;;;;;4.30;3.37;;;;;;;15.03;55.70;100363.81;5058450;28;20536;-55
2022/04/18 11:04:17;;;;;;;6.33;2.97;;;;;;;15.12;55.33;100352.28;5041921;28;20304;-53
2022/04/18 11:06:44;;;;;;;3.37;2.77;;;;;;;15.09;54.90;100345.38;5045675;28;20672;-55
2022/04/18 11:09:16;;;;;;;5.20;3.83;;;;;;;14.99;54.01;100344.75;5035631;28;20820;-55
2022/04/18 11:12:12;;;;;;;3.70;3.27;;;;;;;15.01;54.34;100347.34;5041238;28;20187;-54
2022/04/18 11:14:37;;;;;;;4.57;3.03;;;;;;;15.21;54.85;100337.22;5037157;28;20221;-53
2022/04/18 11:17:04;;;;;;;4.20;3.23;;;;;;;15.22;54.20;100335.50;5041774;28;20237;-53
2022/04/18 11:19:37;;;;;;;3.23;2.93;;;;;;;15.30;53.95;100336.13;5034157;28;20892;-54
2022/04/18 11:22:14;;;;;;;3.40;3.10;;;;;;;15.34;54.47;100332.53;5046488;28;20651;-54
2022/04/18 11:24:49;;;;;;;3.33;3.03;;;;;;;15.32;54.22;100331.72;5039305;28;20275;-54
2022/04/18 11:27:22;;;;;;;3.70;3.13;;;;;;;15.38;54.02;100321.13;5037465;28;20193;-55
2022/04/18 11:30:06;;;;;;;3.87;3.50;;;;;;;15.47;54.33;100326.97;5043872;28;20198;-54
2022/04/18 11:32:44;;;;;;;5.73;3.57;;;;;;;15.57;53.96;100306.69;5041411;28;20193;-54
2022/04/18 11:35:12;;;;;;;3.60;3.30;;;;;;;15.66;53.48;100309.88;5042823;28;20180;-55
2022/04/18 11:37:43;;;;;;;4.00;3.23;;;;;;;15.65;53.12;100312.56;5035193;28;20740;-54
2022/04/18 11:40:11;;;;;;;3.67;2.83;;;;;;;15.71;54.48;100309.75;5045762;28;20532;-55
2022/04/18 11:42:38;;;;;;;4.13;3.20;;;;;;;15.76;54.41;100305.25;5040705;28;20185;-53
2022/04/18 11:45:08;;;;;;;3.50;3.20;;;;;;;15.73;52.00;100305.34;5049615;28;20260;-54
2022/04/18 11:47:41;;;;;;;3.50;3.20;;;;;;;15.72;53.17;100303.63;5046454;28;20193;-56
2022/04/18 11:50:08;;;;;;;5.30;3.37;;;;;;;15.77;53.66;100296.53;5050490;28;20197;-55
2022/04/18 11:52:39;;;;;;;4.73;3.20;;;;;;;15.76;52.71;100292.22;5037571;28;20272;-55